Time;durP1;ratioP1;P1;durP2;ratioP2;P2;SDS_P1;SDS_P2;PMS_P1;PMS_P2;Temp;Humidity;BMP_temperature;BMP_pressure;BME280_temperature;BME280_humidity;BME280_pressure;Samples;Min_cycle;Max_cycle;Signal;HPM_P1;HPM_P2
2021/06/30 00:00:24;;;;;;;1999.90;999.90;;;;;;;21.57;97.76;95572.13;5112937;27;20206;-73
2021/06/30 00:02:51;;;;;;;1999.90;999.90;;;;;;;21.35;98.98;95571.09;5111020;28;20215;-72
2021/06/30 00:05:19;;;;;;;1999.90;999.90;;;;;;;21.32;98.98;95575.22;5110761;28;20248;-71
2021/06/30 00:07:46;;;;;;;1999.90;999.90;;;;;;;21.38;99.14;95579.06;5110710;28;20280;-71
2021/06/30 00:10:13;;;;;;;1999.90;999.90;;;;;;;21.53;99.70;95576.59;5110660;28;20238;-72
2021/06/30 00:12:41;;;;;;;1999.90;999.90;;;;;;;21.65;99.40;95579.00;5110595;28;20203;-73
2021/06/30 00:15:11;;;;;;;1999.90;999.90;;;;;;;21.58;99.01;95577.03;5110565;28;20225;-72
2021/06/30 00:17:40;;;;;;;1999.90;999.90;;;;;;;21.48;100.00;95569.75;5110505;28;20647;-71
2021/06/30 00:20:09;;;;;;;1999.90;999.90;;;;;;;21.39;100.00;95575.31;5110869;28;20276;-73
2021/06/30 00:22:36;;;;;;;1999.90;999.90;;;;;;;21.41;100.00;95567.78;5110340;28;20207;-73
2021/06/30 00:25:04;;;;;;;1999.90;999.90;;;;;;;21.44;100.00;95567.06;5110415;28;20191;-73
2021/06/30 00:27:31;;;;;;;1999.90;999.90;;;;;;;21.38;100.00;95567.72;5110288;28;20263;-73
2021/06/30 00:29:59;;;;;;;1999.90;999.90;;;;;;;21.35;100.00;95577.16;5109933;28;20267;-72
2021/06/30 00:32:26;;;;;;;1999.90;999.90;;;;;;;21.28;100.00;95584.22;5110038;28;20499;-73
2021/06/30 00:34:55;;;;;;;1999.90;999.90;;;;;;;21.26;100.00;95576.69;5110065;28;20314;-73
2021/06/30 00:37:22;;;;;;;1999.90;999.90;;;;;;;21.25;100.00;95580.44;5110146;28;20252;-73
2021/06/30 00:39:49;;;;;;;1999.90;999.90;;;;;;;21.20;100.00;95588.69;5110562;28;20290;-73
2021/06/30 00:42:17;;;;;;;1999.90;999.90;;;;;;;21.17;100.00;95584.09;5110347;28;20195;-71
2021/06/30 00:44:45;;;;;;;1999.90;999.90;;;;;;;21.15;100.00;95575.78;5110192;28;20194;-72
2021/06/30 00:47:13;;;;;;;1999.90;999.90;;;;;;;21.07;100.00;95582.03;5109827;28;20225;-71
2021/06/30 00:49:40;;;;;;;1999.90;999.90;;;;;;;20.99;100.00;95591.00;5110054;28;20195;-72
2021/06/30 00:52:09;;;;;;;1999.90;999.90;;;;;;;21.03;100.00;95589.16;5109821;28;20195;-76
2021/06/30 00:54:36;;;;;;;1999.90;999.90;;;;;;;20.99;100.00;95593.66;5109804;28;20652;-73
2021/06/30 00:57:04;;;;;;;1999.90;999.90;;;;;;;20.90;100.00;95595.78;5110010;28;20663;-75
2021/06/30 00:59:32;;;;;;;1999.90;999.90;;;;;;;20.89;100.00;95589.75;5109996;28;20203;-72
2021/06/30 01:01:59;;;;;;;1999.90;999.90;;;;;;;20.87;100.00;95580.66;5109821;28;20190;-73
2021/06/30 01:04:26;;;;;;;1999.90;999.90;;;;;;;20.86;100.00;95584.41;5109808;28;20195;-75
2021/06/30 01:06:54;;;;;;;1999.90;999.90;;;;;;;20.77;100.00;95589.94;5109804;28;20199;-75
2021/06/30 01:09:24;;;;;;;1999.90;999.90;;;;;;;20.81;100.00;95587.38;5109716;28;20260;-74
2021/06/30 01:11:51;;;;;;;1999.90;999.90;;;;;;;20.83;100.00;95590.41;5109903;28;20206;-75
2021/06/30 01:14:25;;;;;;;1999.90;999.90;;;;;;;20.75;100.00;95581.63;5109611;28;20311;-74
2021/06/30 01:16:53;;;;;;;1999.90;999.90;;;;;;;20.77;100.00;95592.56;5109592;28;20191;-74
2021/06/30 01:19:22;;;;;;;1999.90;999.90;;;;;;;20.53;100.00;95593.72;5109360;28;20225;-75
2021/06/30 01:21:51;;;;;;;1999.90;999.90;;;;;;;20.70;100.00;95589.06;5109402;28;20199;-75
2021/06/30 01:24:20;;;;;;;1999.90;999.90;;;;;;;20.82;100.00;95589.63;5109251;28;20198;-75
2021/06/30 01:26:50;;;;;;;1999.90;999.90;;;;;;;20.45;100.00;95586.06;5109094;28;20695;-73
2021/06/30 01:29:20;;;;;;;1999.90;999.90;;;;;;;20.46;100.00;95587.59;5109509;28;20276;-73
2021/06/30 01:31:49;;;;;;;1999.90;999.90;;;;;;;20.51;100.00;95577.50;5107262;28;20226;-72
2021/06/30 01:34:16;;;;;;;1999.90;999.90;;;;;;;20.47;100.00;95581.94;5107052;28;20619;-74
2021/06/30 01:36:45;;;;;;;1999.90;999.90;;;;;;;20.60;100.00;95579.88;5100151;27;20199;-71
2021/06/30 01:39:13;;;;;;;1999.90;999.90;;;;;;;20.60;100.00;95582.53;5099203;28;20272;-72
2021/06/30 01:41:42;;;;;;;1999.90;999.90;;;;;;;20.67;100.00;95584.53;5108429;28;20576;-71
2021/06/30 01:44:10;;;;;;;1999.90;999.90;;;;;;;20.58;100.00;95590.78;5109185;27;20203;-76
2021/06/30 01:46:38;;;;;;;1999.90;999.90;;;;;;;20.57;100.00;95589.25;5109134;28;20199;-74
2021/06/30 01:49:06;;;;;;;1999.90;999.90;;;;;;;20.62;100.00;95588.97;5108857;28;20199;-74
2021/06/30 01:51:34;;;;;;;1999.90;999.90;;;;;;;20.54;100.00;95603.19;5111365;28;20654;-73
2021/06/30 01:54:04;;;;;;;1999.90;999.90;;;;;;;20.55;100.00;95596.78;5108807;28;20314;-74
2021/06/30 01:56:33;;;;;;;1999.90;999.90;;;;;;;20.51;100.00;95600.50;5108928;28;20560;-73
2021/06/30 01:59:04;;;;;;;1999.90;999.90;;;;;;;20.58;100.00;95590.03;5109025;28;20221;-73
2021/06/30 02:01:32;;;;;;;1999.90;999.90;;;;;;;20.52;100.00;95592.19;5104483;28;20201;-72
2021/06/30 02:04:00;;;;;;;1999.90;999.90;;;;;;;20.50;100.00;95594.44;5105750;28;20218;-75
2021/06/30 02:06:29;;;;;;;1999.90;999.90;;;;;;;20.48;100.00;95594.03;5106664;28;20207;-74
2021/06/30 02:08:58;;;;;;;1999.90;999.90;;;;;;;20.47;100.00;95597.78;5107421;28;20758;-76
2021/06/30 02:11:25;;;;;;;1999.90;999.90;;;;;;;20.37;100.00;95601.03;5108625;28;20240;-74
2021/06/30 02:13:53;;;;;;;1999.90;999.90;;;;;;;20.34;100.00;95604.38;5108248;28;20261;-74
2021/06/30 02:16:22;;;;;;;1999.90;999.90;;;;;;;20.39;100.00;95601.44;5108566;28;20271;-74
2021/06/30 02:18:49;;;;;;;1999.90;999.90;;;;;;;20.34;100.00;95598.31;5108372;28;20191;-73
2021/06/30 02:21:17;;;;;;;1999.90;999.90;;;;;;;20.37;100.00;95600.28;5108209;28;20205;-74
2021/06/30 02:23:44;;;;;;;1999.90;999.90;;;;;;;20.26;100.00;95594.78;5108462;28;20230;-72
2021/06/30 02:26:11;;;;;;;1999.90;999.90;;;;;;;20.28;100.00;95597.06;5108275;28;20684;-74
2021/06/30 02:28:39;;;;;;;1999.90;999.90;;;;;;;20.20;100.00;95598.84;5108511;28;20206;-72
2021/06/30 02:31:07;;;;;;;1999.90;999.90;;;;;;;20.24;100.00;95597.00;5107937;28;20266;-74
2021/06/30 02:33:36;;;;;;;1999.90;999.90;;;;;;;20.24;100.00;95604.94;5108392;28;20228;-74
2021/06/30 02:36:03;;;;;;;1999.90;999.90;;;;;;;20.26;100.00;95601.94;5108494;28;20278;-71
2021/06/30 02:38:30;;;;;;;1999.90;999.90;;;;;;;20.29;100.00;95604.63;5095714;28;20212;-75
2021/06/30 02:40:57;;;;;;;1999.90;999.90;;;;;;;20.27;100.00;95606.88;5088104;28;20206;-73
2021/06/30 02:43:24;;;;;;;1999.90;999.90;;;;;;;20.27;100.00;95609.53;5088176;28;20666;-79
2021/06/30 02:45:51;;;;;;;1999.90;999.90;;;;;;;20.37;100.00;95616.88;5101091;28;20195;-76
2021/06/30 02:48:19;;;;;;;1999.90;999.90;;;;;;;20.34;100.00;95620.22;5107126;28;20281;-77
2021/06/30 02:50:47;;;;;;;1999.90;999.90;;;;;;;20.39;100.00;95622.56;5108028;28;20199;-75
2021/06/30 02:53:16;;;;;;;1999.90;999.90;;;;;;;20.21;100.00;95618.84;5109910;28;20674;-75
2021/06/30 02:55:43;;;;;;;1999.90;999.90;;;;;;;20.24;100.00;95625.28;5112048;28;20314;-78
2021/06/30 02:58:10;;;;;;;1999.90;999.90;;;;;;;20.16;100.00;95625.16;5112436;28;20195;-78
2021/06/30 03:00:37;;;;;;;1999.90;999.90;;;;;;;20.10;100.00;95625.81;5111446;28;20625;-77
2021/06/30 03:03:05;;;;;;;1999.90;999.90;;;;;;;20.09;100.00;95624.28;5111827;28;20213;-75
2021/06/30 03:05:32;;;;;;;1999.90;999.90;;;;;;;20.12;100.00;95624.31;5111810;28;20286;-73
2021/06/30 03:08:01;;;;;;;1999.90;999.90;;;;;;;20.20;100.00;95633.13;5112129;28;20199;-76
2021/06/30 03:10:28;;;;;;;1999.90;999.90;;;;;;;20.18;100.00;95632.72;5111998;28;20282;-77
2021/06/30 03:12:55;;;;;;;1999.90;999.90;;;;;;;20.17;100.00;95641.78;5112076;28;20313;-74
2021/06/30 03:15:22;;;;;;;1999.90;999.90;;;;;;;20.21;100.00;95642.59;5110851;28;20725;-76
2021/06/30 03:17:49;;;;;;;1999.90;999.90;;;;;;;20.26;100.00;95644.94;5111968;28;20206;-73
2021/06/30 03:20:17;;;;;;;1999.90;999.90;;;;;;;20.20;100.00;95638.41;5111092;28;20203;-71
2021/06/30 03:22:44;;;;;;;1999.90;999.90;;;;;;;20.19;100.00;95634.25;5111453;28;20423;-70
2021/06/30 03:25:15;;;;;;;1999.90;999.90;;;;;;;20.25;100.00;95624.94;5111091;28;20656;-72
2021/06/30 03:27:43;;;;;;;1999.90;999.90;;;;;;;20.15;100.00;95630.78;5110854;28;20210;-71
2021/06/30 03:30:12;;;;;;;1999.90;999.90;;;;;;;20.11;100.00;95628.09;5111205;28;20679;-70
2021/06/30 03:32:40;;;;;;;1999.90;999.90;;;;;;;19.99;100.00;95633.53;5111319;28;20695;-72
2021/06/30 03:35:10;;;;;;;1999.90;999.90;;;;;;;20.03;100.00;95625.66;5111499;28;20607;-73
2021/06/30 03:37:38;;;;;;;1999.90;999.90;;;;;;;20.04;100.00;95630.59;5111966;28;20223;-70
2021/06/30 03:40:06;;;;;;;1999.90;999.90;;;;;;;20.23;100.00;95627.16;5111582;28;20286;-72
2021/06/30 03:42:35;;;;;;;1999.90;999.90;;;;;;;20.22;100.00;95622.25;5111386;28;20199;-73
2021/06/30 03:45:02;;;;;;;1999.90;999.90;;;;;;;20.33;100.00;95626.59;5107701;27;20203;-71
2021/06/30 03:47:29;;;;;;;1999.90;999.90;;;;;;;20.48;100.00;95633.63;5104207;28;20203;-71
2021/06/30 03:49:58;;;;;;;1999.90;999.90;;;;;;;20.41;100.00;95640.69;5106288;28;20213;-71
2021/06/30 03:52:25;;;;;;;1999.90;999.90;;;;;;;20.42;100.00;95644.88;5099038;28;20278;-69
2021/06/30 03:54:53;;;;;;;1999.90;999.90;;;;;;;20.45;100.00;95644.16;5107619;28;20218;-73
2021/06/30 03:57:20;;;;;;;1999.90;999.90;;;;;;;20.54;100.00;95653.34;5111041;28;20214;-75
2021/06/30 03:59:49;;;;;;;1999.90;999.90;;;;;;;20.59;100.00;95654.94;5112074;27;20312;-74
2021/06/30 04:02:16;;;;;;;1999.90;999.90;;;;;;;20.60;100.00;95657.22;5108142;28;20616;-69
2021/06/30 04:04:43;;;;;;;1999.90;999.90;;;;;;;20.69;100.00;95654.34;5103877;28;20207;-75
2021/06/30 04:07:11;;;;;;;1999.90;999.90;;;;;;;20.67;100.00;95653.97;5106655;28;20213;-68
2021/06/30 04:09:38;;;;;;;1999.90;999.90;;;;;;;20.68;100.00;95646.78;5108542;28;20231;-68
2021/06/30 04:12:06;;;;;;;1999.90;999.90;;;;;;;20.89;100.00;95641.81;5108567;28;20671;-69
2021/06/30 04:14:33;;;;;;;1999.90;999.90;;;;;;;20.98;100.00;95650.25;5108530;28;20821;-68
2021/06/30 04:17:02;;;;;;;1999.90;999.90;;;;;;;21.06;100.00;95649.25;5108582;28;20281;-68
2021/06/30 04:19:29;;;;;;;1999.90;999.90;;;;;;;21.16;100.00;95653.19;5108828;28;20282;-68
2021/06/30 04:21:56;;;;;;;1999.90;999.90;;;;;;;21.25;100.00;95649.16;5108661;28;20209;-74
2021/06/30 04:24:24;;;;;;;1999.90;999.90;;;;;;;21.42;100.00;95648.63;5110372;28;20236;-67
2021/06/30 04:26:51;;;;;;;1999.90;999.90;;;;;;;21.56;100.00;95655.22;5110310;28;20221;-69
2021/06/30 04:29:18;;;;;;;1999.90;999.90;;;;;;;21.68;100.00;95658.41;5110190;28;20386;-67
2021/06/30 04:31:45;;;;;;;1999.90;999.90;;;;;;;21.94;100.00;95652.31;5109935;28;20313;-69
2021/06/30 04:34:14;;;;;;;1999.90;999.90;;;;;;;22.38;98.03;95662.19;5110501;28;20231;-69
2021/06/30 04:36:41;;;;;;;1999.90;999.90;;;;;;;22.77;96.40;95659.91;5110338;28;20230;-68
2021/06/30 04:39:08;;;;;;;1999.90;999.90;;;;;;;23.20;92.76;95661.72;5109961;28;20395;-69
2021/06/30 04:41:35;;;;;;;1999.90;999.90;;;;;;;23.67;88.84;95662.75;5110081;28;20195;-67
2021/06/30 04:44:02;;;;;;;1999.90;999.90;;;;;;;24.02;86.40;95663.63;5110018;28;20191;-69
2021/06/30 04:46:29;;;;;;;1999.90;999.90;;;;;;;24.35;85.27;95661.84;5110073;28;20256;-68
2021/06/30 04:48:57;;;;;;;1999.90;999.90;;;;;;;24.53;84.56;95657.31;5110246;28;20195;-70
2021/06/30 04:51:25;;;;;;;1999.90;999.90;;;;;;;24.70;84.14;95661.88;5109959;28;20199;-70
2021/06/30 04:53:52;;;;;;;1999.90;999.90;;;;;;;24.82;83.57;95663.38;5109677;28;20199;-69
2021/06/30 04:56:26;;;;;;;1999.90;999.90;;;;;;;24.83;82.64;95659.59;5109740;28;20262;-70
2021/06/30 04:58:55;;;;;;;1999.90;999.90;;;;;;;24.99;82.29;95654.69;5109654;28;20183;-70
2021/06/30 05:01:22;;;;;;;1999.90;999.90;;;;;;;25.09;80.43;95658.47;5109855;28;20682;-69
2021/06/30 05:03:50;;;;;;;1999.90;999.90;;;;;;;25.17;80.28;95655.41;5110083;28;20282;-69
2021/06/30 05:06:17;;;;;;;1999.90;999.90;;;;;;;25.34;79.57;95659.19;5109681;28;20235;-69
2021/06/30 05:08:46;;;;;;;1999.90;999.90;;;;;;;25.42;79.10;95660.66;5109922;28;20205;-67
2021/06/30 05:11:13;;;;;;;1999.90;999.90;;;;;;;25.58;78.47;95663.69;5109573;28;20195;-68
2021/06/30 05:13:40;;;;;;;1999.90;999.90;;;;;;;25.75;76.55;95662.13;5109455;28;20235;-69
2021/06/30 05:16:08;;;;;;;1999.90;999.90;;;;;;;25.93;76.05;95665.47;5108783;28;20280;-69
2021/06/30 05:18:35;;;;;;;1999.90;999.90;;;;;;;26.08;73.47;95666.91;5109347;28;20657;-67
2021/06/30 05:21:02;;;;;;;1999.90;999.90;;;;;;;25.98;74.17;95669.63;5109118;28;20234;-69
2021/06/30 05:23:30;;;;;;;1999.90;999.90;;;;;;;26.01;72.83;95663.50;5109449;28;20662;-68
2021/06/30 05:25:58;;;;;;;1999.90;999.90;;;;;;;25.99;73.52;95666.59;5109511;28;20237;-68
2021/06/30 05:28:26;;;;;;;1999.90;999.90;;;;;;;26.03;75.12;95664.66;5109087;28;20205;-68
2021/06/30 05:30:53;;;;;;;1999.90;999.90;;;;;;;26.19;74.79;95669.53;5109141;28;20722;-69
2021/06/30 05:33:20;;;;;;;1999.90;999.90;;;;;;;26.49;72.35;95675.09;5109311;28;20183;-72
2021/06/30 05:35:49;;;;;;;1999.90;999.90;;;;;;;26.55;70.99;95667.44;5108915;28;20309;-69
2021/06/30 05:38:16;;;;;;;1999.90;999.90;;;;;;;26.69;70.34;95669.22;5109319;28;20316;-68
2021/06/30 05:40:43;;;;;;;1999.90;999.90;;;;;;;26.77;70.32;95673.34;5094361;28;20199;-68
2021/06/30 05:43:11;;;;;;;1999.90;999.90;;;;;;;26.90;70.83;95671.72;5088762;28;21057;-68
2021/06/30 05:45:39;;;;;;;1999.90;999.90;;;;;;;27.03;69.42;95666.69;5088650;28;20188;-67
2021/06/30 05:48:06;;;;;;;1999.90;999.90;;;;;;;27.22;68.44;95663.47;5088491;28;20200;-68
2021/06/30 05:50:34;;;;;;;1999.90;999.90;;;;;;;27.17;67.85;95667.31;5109712;28;20655;-68
2021/06/30 05:53:01;;;;;;;1999.90;999.90;;;;;;;27.29;69.82;95663.41;5109098;28;20330;-68
2021/06/30 05:55:29;;;;;;;1999.90;999.90;;;;;;;27.33;69.48;95664.88;5109094;28;20229;-68
2021/06/30 05:57:56;;;;;;;1999.90;999.90;;;;;;;27.38;69.67;95658.34;5108887;28;20195;-67
2021/06/30 06:00:25;;;;;;;1999.90;999.90;;;;;;;27.63;68.06;95668.78;5096965;28;20583;-68
2021/06/30 06:02:52;;;;;;;1999.90;999.90;;;;;;;27.73;68.58;95665.22;5108557;28;20612;-68
2021/06/30 06:05:19;;;;;;;1999.90;999.90;;;;;;;27.77;67.86;95668.63;5108795;28;20199;-69
2021/06/30 06:07:47;;;;;;;1999.90;999.90;;;;;;;27.70;68.57;95671.34;5108784;28;20289;-69
2021/06/30 06:10:14;;;;;;;1999.90;999.90;;;;;;;27.71;68.62;95660.28;5108882;28;20278;-68
2021/06/30 06:12:42;;;;;;;1999.90;999.90;;;;;;;27.57;70.16;95662.34;5108743;28;20203;-69
2021/06/30 06:15:11;;;;;;;1999.90;999.90;;;;;;;27.77;70.74;95668.63;5108817;28;20219;-68
2021/06/30 06:17:40;;;;;;;1999.90;999.90;;;;;;;27.95;68.74;95661.13;5108755;28;20712;-68
2021/06/30 06:20:09;;;;;;;1999.90;999.90;;;;;;;27.85;69.98;95667.34;5108967;28;20203;-68
2021/06/30 06:22:37;;;;;;;1999.90;999.90;;;;;;;27.96;69.84;95667.22;5108479;28;20202;-68
2021/06/30 06:25:07;;;;;;;1999.90;999.90;;;;;;;28.44;67.42;95664.34;5108710;28;20199;-66
2021/06/30 06:27:34;;;;;;;1999.90;999.90;;;;;;;28.40;67.77;95664.38;5109115;28;20206;-68
2021/06/30 06:30:02;;;;;;;1999.90;999.90;;;;;;;28.53;66.82;95662.66;5112619;28;20256;-68
2021/06/30 06:32:29;;;;;;;1999.90;999.90;;;;;;;28.36;66.95;95668.25;5112589;27;20318;-68
2021/06/30 06:34:57;;;;;;;1999.90;999.90;;;;;;;28.47;68.20;95663.50;5112413;28;20197;-67
2021/06/30 06:37:25;;;;;;;1999.90;999.90;;;;;;;28.61;66.26;95652.59;5112875;28;20200;-68
2021/06/30 06:39:52;;;;;;;1999.90;999.90;;;;;;;28.63;66.91;95651.03;5112951;28;20198;-68
2021/06/30 06:42:19;;;;;;;1999.90;999.90;;;;;;;28.86;64.05;95655.66;5112759;28;20305;-67
2021/06/30 06:44:46;;;;;;;1999.90;999.90;;;;;;;29.00;63.14;95650.06;5112432;27;20199;-67
2021/06/30 06:47:13;;;;;;;1999.90;999.90;;;;;;;28.51;65.07;95648.94;5112370;28;20671;-67
2021/06/30 06:49:40;;;;;;;1999.90;999.90;;;;;;;28.81;65.61;95648.09;5112396;28;20698;-67
2021/06/30 06:52:09;;;;;;;1999.90;999.90;;;;;;;29.12;66.53;95650.66;5107625;28;20595;-67
2021/06/30 06:54:36;;;;;;;1999.90;999.90;;;;;;;29.10;66.69;95641.09;5091704;28;20214;-68
2021/06/30 06:57:04;;;;;;;1999.90;999.90;;;;;;;29.34;64.68;95636.47;5091736;28;20226;-67
2021/06/30 06:59:31;;;;;;;1999.90;999.90;;;;;;;29.42;64.54;95637.88;5091702;28;20724;-68
2021/06/30 07:01:58;;;;;;;1999.90;999.90;;;;;;;29.66;64.81;95637.81;5091922;28;20215;-67
2021/06/30 07:04:25;;;;;;;1999.90;999.90;;;;;;;29.67;61.07;95634.72;5091422;28;20290;-68
2021/06/30 07:06:52;;;;;;;1999.90;999.90;;;;;;;29.73;63.60;95633.06;5091717;28;20195;-68
2021/06/30 07:09:21;;;;;;;1999.90;999.90;;;;;;;29.78;62.66;95632.59;5091789;28;20199;-67
2021/06/30 07:11:48;;;;;;;1999.90;999.90;;;;;;;29.89;61.58;95629.69;5091628;28;20219;-67
2021/06/30 07:14:16;;;;;;;1999.90;999.90;;;;;;;30.11;62.88;95624.63;5091486;28;20202;-67
2021/06/30 07:16:43;;;;;;;1999.90;999.90;;;;;;;30.30;64.47;95621.91;5091319;28;21064;-68
2021/06/30 07:19:10;;;;;;;1999.90;999.90;;;;;;;30.50;60.36;95624.53;5091299;28;20192;-68
2021/06/30 07:21:37;;;;;;;1999.90;999.90;;;;;;;30.55;60.48;95632.09;5103070;28;20848;-67
2021/06/30 07:24:06;;;;;;;1999.90;999.90;;;;;;;30.52;59.51;95627.56;5111694;28;20208;-67
2021/06/30 07:26:35;;;;;;;1999.90;999.90;;;;;;;30.57;60.80;95618.25;5111628;28;20195;-67
2021/06/30 07:29:02;;;;;;;1999.90;999.90;;;;;;;30.51;60.47;95625.28;5111975;28;20225;-67
2021/06/30 07:31:29;;;;;;;1999.90;999.90;;;;;;;30.57;60.26;95619.00;5111530;28;20313;-68
2021/06/30 07:33:56;;;;;;;1999.90;999.90;;;;;;;30.54;60.47;95605.66;5111380;28;20202;-68
2021/06/30 07:36:23;;;;;;;1999.90;999.90;;;;;;;30.79;59.21;95606.56;5111277;28;20230;-68
2021/06/30 07:38:51;;;;;;;1999.90;999.90;;;;;;;30.65;59.56;95609.59;5111064;28;20221;-68
2021/06/30 07:41:18;;;;;;;1999.90;999.90;;;;;;;30.85;59.25;95606.81;5110790;28;20199;-68
2021/06/30 07:43:46;;;;;;;1999.90;999.90;;;;;;;30.88;58.71;95602.53;5111245;28;20297;-67
2021/06/30 07:46:14;;;;;;;1999.90;999.90;;;;;;;31.07;57.43;95596.31;5111412;28;20309;-67
2021/06/30 07:48:41;;;;;;;1999.90;999.90;;;;;;;31.18;58.73;95591.44;5111149;28;20199;-67
2021/06/30 07:51:08;;;;;;;1999.90;999.90;;;;;;;31.02;58.32;95589.53;5111081;28;20238;-67
2021/06/30 07:53:35;;;;;;;1999.90;999.90;;;;;;;31.18;58.67;95580.69;5113510;27;20202;-67
2021/06/30 07:56:02;;;;;;;1999.90;999.90;;;;;;;31.29;57.58;95585.75;5110941;28;20313;-67
2021/06/30 07:58:30;;;;;;;1999.90;999.90;;;;;;;31.18;58.24;95580.69;5111400;28;20278;-67
2021/06/30 08:00:58;;;;;;;1999.90;999.90;;;;;;;31.41;57.65;95585.78;5111018;28;20202;-67
2021/06/30 08:03:25;;;;;;;1999.90;999.90;;;;;;;31.67;59.20;95585.88;5111200;28;20199;-68
2021/06/30 08:05:52;;;;;;;1999.90;999.90;;;;;;;31.70;55.16;95588.47;5111055;28;20203;-68
2021/06/30 08:08:20;;;;;;;1999.90;999.90;;;;;;;31.70;54.65;95585.78;5110968;28;20199;-67
2021/06/30 08:10:47;;;;;;;1999.90;999.90;;;;;;;31.72;54.39;95585.34;5111150;28;20218;-67
2021/06/30 08:13:14;;;;;;;1999.90;999.90;;;;;;;31.68;57.13;95584.72;5110771;28;20195;-67
2021/06/30 08:15:41;;;;;;;1999.90;999.90;;;;;;;31.80;57.24;95578.56;5110889;28;20318;-68
2021/06/30 08:18:10;;;;;;;1999.90;999.90;;;;;;;31.80;56.07;95579.34;5110929;28;20203;-67
2021/06/30 08:20:37;;;;;;;1999.90;999.90;;;;;;;31.87;55.77;95586.44;5110482;28;20313;-67
2021/06/30 08:23:04;;;;;;;1999.90;999.90;;;;;;;31.91;55.61;95581.72;5110597;28;20268;-67
2021/06/30 08:25:31;;;;;;;1999.90;999.90;;;;;;;31.72;57.02;95579.97;5110378;28;20236;-67
2021/06/30 08:28:00;;;;;;;1999.90;999.90;;;;;;;32.03;57.18;95573.63;5110494;28;20294;-67
2021/06/30 08:30:27;;;;;;;1999.90;999.90;;;;;;;32.17;54.85;95574.44;5110234;28;20960;-67
2021/06/30 08:32:54;;;;;;;1999.90;999.90;;;;;;;32.08;54.64;95577.72;5110556;28;20219;-67
2021/06/30 08:35:22;;;;;;;1999.90;999.90;;;;;;;32.29;54.98;95574.41;5110259;28;20642;-67
2021/06/30 08:37:53;;;;;;;1999.90;999.90;;;;;;;32.46;53.50;95577.72;5110001;28;20218;-68
2021/06/30 08:40:20;;;;;;;1999.90;999.90;;;;;;;32.65;52.17;95570.59;5110363;28;20202;-68
2021/06/30 08:42:48;;;;;;;1999.90;999.90;;;;;;;32.82;52.18;95577.34;5110182;28;20210;-68
2021/06/30 08:45:15;;;;;;;1999.90;999.90;;;;;;;32.87;53.40;95569.47;5110386;28;20221;-68
2021/06/30 08:47:44;;;;;;;1999.90;999.90;;;;;;;32.93;54.00;95572.34;5109968;28;20671;-68
2021/06/30 08:50:13;;;;;;;1999.90;999.90;;;;;;;32.44;53.58;95575.47;5109732;28;20679;-68
2021/06/30 08:52:42;;;;;;;1999.90;999.90;;;;;;;32.57;54.02;95564.69;5109919;28;20199;-68
2021/06/30 08:55:12;;;;;;;1999.90;999.90;;;;;;;32.33;53.93;95569.66;5109963;28;20195;-68
2021/06/30 08:57:39;;;;;;;1999.90;999.90;;;;;;;32.68;55.82;95561.66;5110100;28;20223;-68
2021/06/30 09:00:08;;;;;;;1999.90;999.90;;;;;;;33.06;52.82;95564.22;5109999;28;20199;-68
2021/06/30 09:02:35;;;;;;;1999.90;999.90;;;;;;;33.00;51.66;95560.56;5109565;28;20198;-68
2021/06/30 09:05:24;;;;;;;1999.90;999.90;;;;;;;33.19;51.31;95562.25;5109671;28;20671;-68
2021/06/30 09:07:53;;;;;;;1999.90;999.90;;;;;;;33.21;48.88;95560.63;5109743;28;20187;-68
2021/06/30 09:10:30;;;;;;;1999.90;999.90;;;;;;;32.87;50.66;95558.69;5109863;28;20281;-68
2021/06/30 09:12:58;;;;;;;1999.90;999.90;;;;;;;33.08;50.19;95557.19;5109496;28;20183;-68
2021/06/30 09:15:29;;;;;;;1999.90;999.90;;;;;;;33.26;49.95;95557.38;5109512;28;20205;-68
2021/06/30 09:18:18;;;;;;;1999.90;999.90;;;;;;;33.51;49.21;95550.31;5109548;28;20682;-68
2021/06/30 09:20:46;;;;;;;1999.90;999.90;;;;;;;33.17;49.41;95554.63;5109134;28;20187;-67
2021/06/30 09:23:15;;;;;;;1999.90;999.90;;;;;;;33.06;50.73;95551.50;5109654;28;20194;-67
2021/06/30 09:25:44;;;;;;;1999.90;999.90;;;;;;;33.16;50.14;95544.25;5108888;28;20582;-67
2021/06/30 09:28:16;;;;;;;1999.90;999.90;;;;;;;33.05;50.70;95547.31;5109795;28;20583;-68
2021/06/30 09:30:59;;;;;;;1999.90;999.90;;;;;;;32.98;50.33;95544.84;5109500;28;20286;-68
2021/06/30 09:33:45;;;;;;;1999.90;999.90;;;;;;;33.29;50.93;95534.91;5107595;28;20206;-68
2021/06/30 09:36:14;;;;;;;1999.90;999.90;;;;;;;33.60;50.37;95528.78;5109252;28;20318;-68
2021/06/30 09:38:44;;;;;;;1999.90;999.90;;;;;;;33.86;49.15;95527.44;5109658;28;20638;-68
2021/06/30 09:41:19;;;;;;;1999.90;999.90;;;;;;;33.98;49.80;95518.47;5109246;28;20191;-68
2021/06/30 09:43:46;;;;;;;1999.90;999.90;;;;;;;34.04;48.23;95524.03;5109489;28;20183;-67
2021/06/30 09:46:21;;;;;;;1999.90;999.90;;;;;;;34.00;49.53;95516.09;5111892;27;20203;-68
2021/06/30 09:48:55;;;;;;;1999.90;999.90;;;;;;;34.32;49.97;95514.88;5109483;28;20191;-68
2021/06/30 09:51:23;;;;;;;1999.90;999.90;;;;;;;34.65;45.96;95506.19;5109484;28;20243;-68
2021/06/30 09:54:02;;;;;;;1999.90;999.90;;;;;;;34.51;46.24;95497.47;5109580;28;20195;-68
2021/06/30 09:56:36;;;;;;;1999.90;999.90;;;;;;;34.11;45.95;95494.09;5109093;28;20210;-68
2021/06/30 09:59:21;;;;;;;1999.90;999.90;;;;;;;34.09;46.47;95491.84;5109283;28;20175;-68
2021/06/30 10:01:58;;;;;;;1999.90;999.90;;;;;;;34.14;46.51;95485.84;5109121;28;20186;-68
2021/06/30 10:04:29;;;;;;;1999.90;999.90;;;;;;;34.32;46.92;95484.41;5112811;28;20219;-67
2021/06/30 10:06:57;;;;;;;1999.90;999.90;;;;;;;34.33;45.95;95477.81;5113241;28;20214;-67
2021/06/30 10:09:26;;;;;;;1999.90;999.90;;;;;;;34.34;48.32;95473.91;5113483;28;20191;-68
2021/06/30 10:12:01;;;;;;;1999.90;999.90;;;;;;;34.29;48.94;95477.94;5113370;28;20191;-68
2021/06/30 10:14:29;;;;;;;1999.90;999.90;;;;;;;34.13;46.37;95473.56;5113013;27;20182;-68
2021/06/30 10:16:57;;;;;;;1999.90;999.90;;;;;;;34.42;47.66;95469.72;5113248;27;20225;-68
2021/06/30 10:19:24;;;;;;;1999.90;999.90;;;;;;;34.52;46.07;95466.56;5113144;28;20949;-68
2021/06/30 10:21:51;;;;;;;1999.90;999.90;;;;;;;34.45;45.95;95464.19;5112963;28;20214;-68
2021/06/30 10:24:20;;;;;;;1999.90;999.90;;;;;;;34.73;44.42;95466.88;5113135;28;20559;-68
2021/06/30 10:26:50;;;;;;;1999.90;999.90;;;;;;;34.86;44.80;95460.13;5112900;28;20191;-68
2021/06/30 10:29:17;;;;;;;1999.90;999.90;;;;;;;34.79;45.37;95457.75;5112676;28;20198;-68
2021/06/30 10:31:48;;;;;;;1999.90;999.90;;;;;;;34.97;43.41;95449.59;5112548;28;20227;-68
2021/06/30 10:34:16;;;;;;;1999.90;999.90;;;;;;;34.68;46.10;95443.94;5112780;28;20629;-68
2021/06/30 10:36:53;;;;;;;1999.90;999.90;;;;;;;34.77;46.77;95446.63;5113175;28;20226;-68
2021/06/30 10:39:22;;;;;;;1999.90;999.90;;;;;;;34.97;43.28;95448.88;5112749;28;20643;-68
2021/06/30 10:41:54;;;;;;;1999.90;999.90;;;;;;;35.04;43.33;95442.38;5112598;28;20199;-68
2021/06/30 10:44:23;;;;;;;1999.90;999.90;;;;;;;34.97;42.99;95438.78;5112944;28;20189;-68
2021/06/30 10:46:53;;;;;;;1999.90;999.90;;;;;;;35.08;43.62;95441.03;5112592;28;20205;-67
2021/06/30 10:49:26;;;;;;;1999.90;999.90;;;;;;;35.22;44.11;95443.09;5112556;28;20199;-68
2021/06/30 10:51:56;;;;;;;1999.90;999.90;;;;;;;35.21;45.11;95438.94;5112364;28;20260;-67
2021/06/30 10:54:42;;;;;;;1999.90;999.90;;;;;;;35.06;42.51;95427.22;5112736;28;20655;-67
2021/06/30 10:57:31;;;;;;;1999.90;999.90;;;;;;;35.28;43.40;95430.47;5112175;28;20640;-67